Meteorología y climatología de Navarra
Datos de la estación - Meteo Navarra

Estación de Etxarri-Aranatz GN

Altitud 505 m.


Datos desde el 12/09/2019 hasta el 13/09/2019 en horario solar
Los datos son PROVISIONALES

Anterior Página 1 de 1 Siguiente Descargar: Formato para Excel 2000 o superior   Formato csv   Formato para OpenOffice Calc
Fecha Temperatura Humedad relativa Radiación global Insolación Precipitación Vel. viento 10 m Vel. viento 10 m Dir. viento 10 m
ºC % W/m² s l/m² m/s km/h º
12/09/2019 0:00 9.8 93 0.0 0 0.0 0.1 0.4 347
12/09/2019 0:10 9.6 93 0.0 0 0.0 0.4 1.4 320
12/09/2019 0:20 9.9 95 0.0 0 0.0 1.3 4.5 327
12/09/2019 0:30 10.1 95 0.0 0 0.0 1.3 4.7 336
12/09/2019 0:40 10.1 93 0.0 0 0.0 0.5 1.7 323
12/09/2019 0:50 8.8 92 0.0 0 0.0 0.0 0.0 201
12/09/2019 1:00 9.0 94 0.0 0 0.0 0.2 0.6 41
12/09/2019 1:10 8.9 94 0.0 0 0.0 0.4 1.4 351
12/09/2019 1:20 8.1 93 0.0 0 0.0 0.4 1.4 150
12/09/2019 1:30 8.1 95 0.0 0 0.0 0.4 1.4 182
12/09/2019 1:40 8.3 96 0.0 0 0.0 0.4 1.4 250
12/09/2019 1:50 8.2 95 0.0 0 0.0 0.3 1.0 58
12/09/2019 2:00 8.0 96 0.0 0 0.0 0.6 2.0 40
12/09/2019 2:10 7.9 96 0.0 0 0.0 0.2 0.9 39
12/09/2019 2:20 7.4 95 0.0 0 0.0 0.4 1.5 178
12/09/2019 2:30 7.9 96 0.0 0 0.0 0.6 2.0 325
12/09/2019 2:40 8.2 96 0.0 0 0.0 0.2 0.6 289
12/09/2019 2:50 7.3 95 0.0 0 0.0 0.3 1.2 191
12/09/2019 3:00 7.0 96 0.0 0 0.0 1.3 4.5 198
12/09/2019 3:10 7.0 96 0.0 0 0.0 0.8 2.7 180
12/09/2019 3:20 7.5 97 0.0 0 0.0 0.4 1.4 3
12/09/2019 3:30 7.2 96 0.0 0 0.0 0.4 1.4 217
12/09/2019 3:40 7.2 96 0.0 0 0.0 0.5 1.9 226
12/09/2019 3:50 7.2 97 0.0 0 0.0 0.2 0.8 5
12/09/2019 4:00 7.0 96 0.0 0 0.0 0.4 1.3 302
12/09/2019 4:10 6.4 96 0.0 0 0.0 0.4 1.5 231
12/09/2019 4:20 6.6 97 0.0 0 0.0 0.6 2.2 236
12/09/2019 4:30 6.5 97 0.0 0 0.0 0.7 2.6 116
12/09/2019 4:40 6.6 97 0.0 0 0.0 1.4 5.0 184
12/09/2019 4:50 7.1 97 0.0 0 0.0 1.0 3.7 351
12/09/2019 5:00 7.7 98 0.0 0 0.0 0.6 2.3 7
12/09/2019 5:10 7.2 97 0.0 0 0.0 0.2 0.7 340
12/09/2019 5:20 6.6 96 0.0 0 0.0 0.1 0.5 287
12/09/2019 5:30 6.7 97 0.0 0 0.0 0.5 1.8 191
12/09/2019 5:40 6.9 97 0.0 0 0.0 0.4 1.5 195
12/09/2019 5:50 6.5 97 0.0 0 0.0 0.7 2.6 190
12/09/2019 6:00 6.9 97 7.8 0 0.0 0.3 0.9 36
12/09/2019 6:10 7.0 97 32.1 366 0.0 0.1 0.4 287
12/09/2019 6:20 7.5 98 46.5 600 0.0 0.8 2.8 326
12/09/2019 6:30 7.7 97 75.3 584 0.0 0.3 1.2 275
12/09/2019 6:40 7.9 97 140.1 600 0.0 0.3 1.0 163
12/09/2019 6:50 8.3 97 167.3 600 0.0 1.2 4.2 191
12/09/2019 7:00 8.4 97 169.5 600 0.0 1.2 4.3 187
12/09/2019 7:10 9.4 98 179.8 600 0.0 0.4 1.5 167
12/09/2019 7:20 10.6 98 200.8 600 0.0 0.3 1.1 193
12/09/2019 7:30 11.2 98 237.7 600 0.0 0.2 0.8 182
12/09/2019 7:40 11.8 97 284.6 600 0.0 0.5 1.9 198
12/09/2019 7:50 12.3 96 325.3 600 0.0 0.1 0.4 208
12/09/2019 8:00 13.3 93 359.8 600 0.0 0.4 1.4 237
12/09/2019 8:10 14.0 85 392.8 600 0.0 1.0 3.6 246
12/09/2019 8:20 14.9 81 415.1 600 0.0 1.5 5.4 251
12/09/2019 8:30 15.5 77 451.9 600 0.0 0.7 2.5 266
12/09/2019 8:40 15.7 75 482.8 600 0.0 1.0 3.4 298
12/09/2019 8:50 15.5 74 508.2 600 0.0 0.8 2.8 299
12/09/2019 9:00 16.4 73 535.5 600 0.0 0.8 3.0 314
12/09/2019 9:10 16.6 71 565.7 600 0.0 0.6 2.2 345
12/09/2019 9:20 17.3 69 591.5 600 0.0 0.7 2.5 257
12/09/2019 9:30 18.1 66 618.7 600 0.0 1.6 5.7 236
12/09/2019 9:40 18.6 64 643.0 600 0.0 1.6 5.6 231
12/09/2019 9:50 18.8 62 665.7 600 0.0 1.0 3.6 232
12/09/2019 10:00 18.5 62 685.9 600 0.0 1.0 3.7 309
12/09/2019 10:10 18.5 62 705.0 600 0.0 1.0 3.6 301
12/09/2019 10:20 19.1 60 721.7 600 0.0 0.6 2.3 293
12/09/2019 10:30 19.8 60 738.2 600 0.0 1.0 3.5 259
12/09/2019 10:40 20.1 57 751.6 600 0.0 1.0 3.4 293
12/09/2019 10:50 19.8 57 762.9 600 0.0 1.3 4.8 340
12/09/2019 11:00 20.5 57 773.1 600 0.0 1.5 5.5 247
12/09/2019 11:10 20.8 56 781.9 600 0.0 1.1 4.1 272
12/09/2019 11:20 21.3 56 790.3 600 0.0 1.7 6.2 250
12/09/2019 11:30 21.5 56 796.8 600 0.0 1.6 5.9 251
12/09/2019 11:40 21.5 55 801.0 600 0.0 1.3 4.7 297
12/09/2019 11:50 21.9 56 806.0 600 0.0 1.8 6.5 249
12/09/2019 12:00 22.0 54 807.0 600 0.0 1.2 4.1 292
12/09/2019 12:10 22.5 54 809.0 600 0.0 1.9 6.7 233
12/09/2019 12:20 23.0 54 810.0 600 0.0 1.7 6.3 243
12/09/2019 12:30 23.1 53 808.0 600 0.0 1.5 5.5 238
12/09/2019 12:40 23.7 52 805.0 600 0.0 1.3 4.8 273
12/09/2019 12:50 23.4 54 800.0 600 0.0 1.8 6.6 248
12/09/2019 13:00 24.4 53 791.5 600 0.0 1.7 6.2 240
12/09/2019 13:10 23.9 53 783.0 600 0.0 2.2 7.8 243
12/09/2019 13:20 24.3 52 772.3 600 0.0 1.4 4.9 270
12/09/2019 13:30 23.8 52 759.4 600 0.0 1.6 5.7 284
12/09/2019 13:40 23.4 53 744.9 600 0.0 1.6 5.7 319
12/09/2019 13:50 23.7 53 728.4 600 0.0 1.6 5.8 281
12/09/2019 14:00 24.3 52 710.1 600 0.0 1.6 5.9 272
12/09/2019 14:10 23.7 53 690.4 600 0.0 1.6 5.9 290
12/09/2019 14:20 23.7 53 669.9 600 0.0 1.9 7.0 288
12/09/2019 14:30 23.5 54 648.0 600 0.0 1.8 6.4 269
12/09/2019 14:40 24.0 53 624.9 600 0.0 1.9 6.9 269
12/09/2019 14:50 23.8 52 601.6 600 0.0 1.5 5.5 294
12/09/2019 15:00 23.6 54 578.0 600 0.0 1.6 5.7 286
12/09/2019 15:10 23.9 54 552.3 600 0.0 1.8 6.4 275
12/09/2019 15:20 23.7 55 525.8 600 0.0 1.6 5.6 294
12/09/2019 15:30 23.7 56 496.6 600 0.0 1.4 5.2 266
12/09/2019 15:40 23.8 55 468.0 600 0.0 1.3 4.6 274
12/09/2019 15:50 23.9 55 437.5 600 0.0 1.5 5.5 262
12/09/2019 16:00 23.5 56 407.2 600 0.0 1.3 4.8 280
12/09/2019 16:10 22.9 58 375.7 600 0.0 1.5 5.5 304
12/09/2019 16:20 22.7 58 343.5 600 0.0 1.2 4.5 287
12/09/2019 16:30 23.1 57 310.9 600 0.0 1.6 5.6 266
12/09/2019 16:40 23.1 58 279.3 600 0.0 1.2 4.5 273
12/09/2019 16:50 23.0 58 247.5 600 0.0 1.4 4.9 274
12/09/2019 17:00 22.2 60 215.8 600 0.0 1.2 4.4 289
12/09/2019 17:10 21.4 63 183.2 600 0.0 1.4 5.0 271
12/09/2019 17:20 21.0 65 151.4 600 0.0 1.1 4.0 281
12/09/2019 17:30 20.9 67 119.0 600 0.0 1.0 3.5 289
12/09/2019 17:40 20.5 68 83.3 522 0.0 0.8 2.8 283
12/09/2019 17:50 20.2 69 55.5 270 0.0 0.8 2.8 290
12/09/2019 18:00 19.6 71 25.8 0 0.0 0.7 2.6 274
12/09/2019 18:10 19.2 73 2.9 0 0.0 0.9 3.1 274
12/09/2019 18:20 18.8 75 0.0 0 0.0 0.7 2.4 291
12/09/2019 18:30 18.4 76 0.0 0 0.0 0.7 2.5 306
12/09/2019 18:40 18.0 77 0.0 0 0.0 0.7 2.5 304
12/09/2019 18:50 17.7 79 0.0 0 0.0 0.8 2.8 302
12/09/2019 19:00 17.2 81 0.0 0 0.0 0.9 3.2 283
12/09/2019 19:10 17.3 81 0.0 0 0.0 1.0 3.6 301
12/09/2019 19:20 16.9 82 0.0 0 0.0 1.6 5.7 302
12/09/2019 19:30 17.1 81 0.0 0 0.0 1.0 3.5 305
12/09/2019 19:40 16.6 83 0.0 0 0.0 0.6 2.3 295
12/09/2019 19:50 16.2 86 0.0 0 0.0 1.5 5.2 278
12/09/2019 20:00 16.3 86 0.0 0 0.0 1.3 4.5 282
12/09/2019 20:10 16.0 86 0.0 0 0.0 0.9 3.1 304
12/09/2019 20:20 15.9 87 0.0 0 0.0 0.6 2.0 310
12/09/2019 20:30 15.5 88 0.0 0 0.0 0.8 2.9 276
12/09/2019 20:40 15.3 89 0.0 0 0.0 0.6 2.2 281
12/09/2019 20:50 15.2 90 0.0 0 0.0 1.1 4.0 264
12/09/2019 21:00 14.8 90 0.0 0 0.0 0.7 2.4 280
12/09/2019 21:10 14.7 91 0.0 0 0.0 0.6 2.1 306
12/09/2019 21:20 14.4 91 0.0 0 0.0 0.3 1.0 242
12/09/2019 21:30 13.7 90 0.0 0 0.0 0.4 1.4 205
12/09/2019 21:40 13.1 91 0.0 0 0.0 0.2 0.8 205
12/09/2019 21:50 12.8 92 0.0 0 0.0 0.4 1.6 167
12/09/2019 22:00 12.5 93 0.0 0 0.0 0.4 1.5 283
12/09/2019 22:10 12.2 93 0.0 0 0.0 1.1 3.9 217
12/09/2019 22:20 12.0 94 0.0 0 0.0 1.0 3.6 188
12/09/2019 22:30 11.9 94 0.0 0 0.0 0.2 0.8 267
12/09/2019 22:40 11.7 94 0.0 0 0.0 0.1 0.4 248
12/09/2019 22:50 11.8 95 0.0 0 0.0 0.9 3.1 316
12/09/2019 23:00 12.3 95 0.0 0 0.0 0.8 2.7 246
12/09/2019 23:10 11.3 94 0.0 0 0.0 0.8 3.0 176
12/09/2019 23:20 11.1 94 0.0 0 0.0 0.8 3.0 186
12/09/2019 23:30 11.0 95 0.0 0 0.0 0.2 0.8 203
12/09/2019 23:40 11.1 95 0.0 0 0.0 0.8 3.0 179
12/09/2019 23:50 10.7 95 0.0 0 0.0 0.7 2.4 199
Anterior Página 1 de 1 Siguiente

NOTA: Tipo de datos según el color:
   - Valores diarios o 10 minutos correctos
   - Valores diarios calculados a partir de un número de datos 10 minutos menor que 144 y mayor que 120, o de un número de datos semihorarios menor que 48 y mayor que 40 (caso de las estaciones de Riegos de Navarra y del MARM)
   - Valores diez minutos estimados


Contacto        Enlaces        Aviso legal